sensor_id;sensor_type;location;lat;lon;timestamp;P1;durP1;ratioP1;P2;durP2;ratioP2
40669;SDS011;26355;45.528;9.234;2022-12-18T00:00:43;25.65;;;15.73;;
40669;SDS011;26355;45.528;9.234;2022-12-18T00:03:12;25.40;;;15.68;;
40669;SDS011;26355;45.528;9.234;2022-12-18T00:05:45;25.13;;;15.10;;
40669;SDS011;26355;45.528;9.234;2022-12-18T00:08:12;24.75;;;14.15;;
40669;SDS011;26355;45.528;9.234;2022-12-18T00:10:38;25.45;;;15.07;;
40669;SDS011;26355;45.528;9.234;2022-12-18T00:13:03;27.50;;;16.55;;
40669;SDS011;26355;45.528;9.234;2022-12-18T00:15:29;25.25;;;14.93;;
40669;SDS011;26355;45.528;9.234;2022-12-18T00:17:55;25.45;;;15.20;;
40669;SDS011;26355;45.528;9.234;2022-12-18T00:20:21;27.00;;;16.08;;
40669;SDS011;26355;45.528;9.234;2022-12-18T00:22:51;26.08;;;14.93;;
40669;SDS011;26355;45.528;9.234;2022-12-18T00:25:17;24.13;;;14.87;;
40669;SDS011;26355;45.528;9.234;2022-12-18T00:27:43;26.52;;;16.10;;
40669;SDS011;26355;45.528;9.234;2022-12-18T00:30:08;25.60;;;14.70;;
40669;SDS011;26355;45.528;9.234;2022-12-18T00:32:35;27.70;;;15.70;;
40669;SDS011;26355;45.528;9.234;2022-12-18T00:35:01;25.52;;;14.82;;
40669;SDS011;26355;45.528;9.234;2022-12-18T00:37:27;25.35;;;14.82;;
40669;SDS011;26355;45.528;9.234;2022-12-18T00:39:54;25.48;;;14.88;;
40669;SDS011;26355;45.528;9.234;2022-12-18T00:42:20;26.08;;;15.52;;
40669;SDS011;26355;45.528;9.234;2022-12-18T00:45:05;24.67;;;15.27;;
40669;SDS011;26355;45.528;9.234;2022-12-18T00:47:32;28.07;;;15.80;;
40669;SDS011;26355;45.528;9.234;2022-12-18T00:50:00;28.58;;;16.35;;
40669;SDS011;26355;45.528;9.234;2022-12-18T00:52:39;23.40;;;15.00;;
40669;SDS011;26355;45.528;9.234;2022-12-18T00:55:09;25.30;;;15.10;;
40669;SDS011;26355;45.528;9.234;2022-12-18T00:57:38;25.65;;;15.05;;
40669;SDS011;26355;45.528;9.234;2022-12-18T01:00:14;26.98;;;16.13;;
40669;SDS011;26355;45.528;9.234;2022-12-18T01:02:55;26.08;;;15.55;;
40669;SDS011;26355;45.528;9.234;2022-12-18T01:05:29;24.02;;;14.45;;
40669;SDS011;26355;45.528;9.234;2022-12-18T01:08:11;25.27;;;15.45;;
40669;SDS011;26355;45.528;9.234;2022-12-18T01:10:39;26.13;;;15.48;;
40669;SDS011;26355;45.528;9.234;2022-12-18T01:13:06;24.85;;;14.90;;
40669;SDS011;26355;45.528;9.234;2022-12-18T01:15:32;25.38;;;15.50;;
40669;SDS011;26355;45.528;9.234;2022-12-18T01:17:58;27.35;;;15.73;;
40669;SDS011;26355;45.528;9.234;2022-12-18T01:20:24;25.42;;;15.15;;
40669;SDS011;26355;45.528;9.234;2022-12-18T01:22:50;26.40;;;15.68;;
40669;SDS011;26355;45.528;9.234;2022-12-18T01:25:16;26.67;;;15.50;;
40669;SDS011;26355;45.528;9.234;2022-12-18T01:27:43;25.35;;;15.38;;
40669;SDS011;26355;45.528;9.234;2022-12-18T01:30:09;25.33;;;16.02;;
40669;SDS011;26355;45.528;9.234;2022-12-18T01:32:35;26.63;;;16.52;;
40669;SDS011;26355;45.528;9.234;2022-12-18T01:35:01;26.10;;;15.00;;
40669;SDS011;26355;45.528;9.234;2022-12-18T01:37:27;28.40;;;16.02;;
40669;SDS011;26355;45.528;9.234;2022-12-18T01:39:54;26.05;;;15.35;;
40669;SDS011;26355;45.528;9.234;2022-12-18T01:42:20;24.90;;;15.38;;
40669;SDS011;26355;45.528;9.234;2022-12-18T01:47:15;27.08;;;16.35;;
40669;SDS011;26355;45.528;9.234;2022-12-18T01:49:46;26.10;;;15.02;;
40669;SDS011;26355;45.528;9.234;2022-12-18T01:52:13;25.80;;;15.18;;
40669;SDS011;26355;45.528;9.234;2022-12-18T01:54:39;27.10;;;16.88;;
40669;SDS011;26355;45.528;9.234;2022-12-18T01:57:05;26.13;;;15.43;;
40669;SDS011;26355;45.528;9.234;2022-12-18T01:59:31;27.75;;;16.33;;
40669;SDS011;26355;45.528;9.234;2022-12-18T02:01:59;26.73;;;15.93;;
40669;SDS011;26355;45.528;9.234;2022-12-18T02:04:26;26.13;;;15.85;;
40669;SDS011;26355;45.528;9.234;2022-12-18T02:06:58;25.80;;;16.10;;
40669;SDS011;26355;45.528;9.234;2022-12-18T02:09:55;25.60;;;16.20;;
40669;SDS011;26355;45.528;9.234;2022-12-18T02:16:03;26.33;;;16.00;;
40669;SDS011;26355;45.528;9.234;2022-12-18T02:18:40;28.20;;;17.90;;
40669;SDS011;26355;45.528;9.234;2022-12-18T02:21:18;29.65;;;17.85;;
40669;SDS011;26355;45.528;9.234;2022-12-18T02:26:30;28.75;;;17.08;;
40669;SDS011;26355;45.528;9.234;2022-12-18T02:29:13;29.90;;;17.65;;
40669;SDS011;26355;45.528;9.234;2022-12-18T02:31:52;29.25;;;16.92;;
40669;SDS011;26355;45.528;9.234;2022-12-18T02:34:22;30.85;;;18.35;;
40669;SDS011;26355;45.528;9.234;2022-12-18T02:36:53;28.30;;;17.40;;
40669;SDS011;26355;45.528;9.234;2022-12-18T02:39:20;29.63;;;18.33;;
40669;SDS011;26355;45.528;9.234;2022-12-18T02:41:48;32.17;;;18.33;;
40669;SDS011;26355;45.528;9.234;2022-12-18T02:44:15;33.92;;;19.45;;
40669;SDS011;26355;45.528;9.234;2022-12-18T02:46:42;31.98;;;19.25;;
40669;SDS011;26355;45.528;9.234;2022-12-18T02:57:54;38.90;;;21.33;;
40669;SDS011;26355;45.528;9.234;2022-12-18T03:00:41;42.95;;;23.33;;
40669;SDS011;26355;45.528;9.234;2022-12-18T03:03:43;42.25;;;21.92;;
40669;SDS011;26355;45.528;9.234;2022-12-18T03:06:23;44.75;;;24.17;;
40669;SDS011;26355;45.528;9.234;2022-12-18T03:08:56;44.30;;;25.77;;
40669;SDS011;26355;45.528;9.234;2022-12-18T03:11:24;47.55;;;23.98;;
40669;SDS011;26355;45.528;9.234;2022-12-18T03:14:23;42.95;;;24.05;;
40669;SDS011;26355;45.528;9.234;2022-12-18T03:16:52;48.33;;;26.85;;
40669;SDS011;26355;45.528;9.234;2022-12-18T03:19:23;44.00;;;24.02;;
40669;SDS011;26355;45.528;9.234;2022-12-18T03:21:53;44.85;;;25.90;;
40669;SDS011;26355;45.528;9.234;2022-12-18T03:24:21;46.28;;;26.35;;
40669;SDS011;26355;45.528;9.234;2022-12-18T03:29:40;46.08;;;23.85;;
40669;SDS011;26355;45.528;9.234;2022-12-18T03:32:07;44.17;;;24.42;;
40669;SDS011;26355;45.528;9.234;2022-12-18T03:34:46;44.92;;;25.00;;
40669;SDS011;26355;45.528;9.234;2022-12-18T03:37:15;47.47;;;27.83;;
40669;SDS011;26355;45.528;9.234;2022-12-18T03:39:41;44.92;;;24.77;;
40669;SDS011;26355;45.528;9.234;2022-12-18T03:42:13;45.75;;;25.42;;
40669;SDS011;26355;45.528;9.234;2022-12-18T03:45:02;46.67;;;24.95;;
40669;SDS011;26355;45.528;9.234;2022-12-18T03:47:39;57.63;;;29.92;;
40669;SDS011;26355;45.528;9.234;2022-12-18T03:50:16;73.82;;;33.00;;
40669;SDS011;26355;45.528;9.234;2022-12-18T03:52:47;74.03;;;34.63;;
40669;SDS011;26355;45.528;9.234;2022-12-18T03:55:19;67.10;;;32.53;;
40669;SDS011;26355;45.528;9.234;2022-12-18T03:57:46;68.53;;;32.42;;
40669;SDS011;26355;45.528;9.234;2022-12-18T04:02:42;67.85;;;31.15;;
40669;SDS011;26355;45.528;9.234;2022-12-18T04:05:16;69.22;;;30.83;;
40669;SDS011;26355;45.528;9.234;2022-12-18T04:10:14;72.95;;;30.67;;
40669;SDS011;26355;45.528;9.234;2022-12-18T04:12:41;71.93;;;32.55;;
40669;SDS011;26355;45.528;9.234;2022-12-18T04:15:07;70.13;;;30.35;;
40669;SDS011;26355;45.528;9.234;2022-12-18T04:17:34;68.55;;;31.52;;
40669;SDS011;26355;45.528;9.234;2022-12-18T04:20:00;68.90;;;30.13;;
40669;SDS011;26355;45.528;9.234;2022-12-18T04:22:26;65.53;;;31.45;;
40669;SDS011;26355;45.528;9.234;2022-12-18T04:24:51;70.57;;;31.08;;
40669;SDS011;26355;45.528;9.234;2022-12-18T04:27:17;66.75;;;30.48;;
40669;SDS011;26355;45.528;9.234;2022-12-18T04:29:43;61.97;;;29.73;;
40669;SDS011;26355;45.528;9.234;2022-12-18T04:32:08;66.07;;;30.55;;
40669;SDS011;26355;45.528;9.234;2022-12-18T04:34:34;66.05;;;32.03;;
40669;SDS011;26355;45.528;9.234;2022-12-18T04:37:00;61.35;;;27.20;;
40669;SDS011;26355;45.528;9.234;2022-12-18T04:39:26;61.38;;;28.25;;
40669;SDS011;26355;45.528;9.234;2022-12-18T04:41:52;59.85;;;29.33;;
40669;SDS011;26355;45.528;9.234;2022-12-18T04:44:17;57.85;;;29.15;;
40669;SDS011;26355;45.528;9.234;2022-12-18T04:46:43;60.13;;;28.23;;
40669;SDS011;26355;45.528;9.234;2022-12-18T04:49:09;61.03;;;28.13;;
40669;SDS011;26355;45.528;9.234;2022-12-18T04:51:38;56.22;;;28.23;;
40669;SDS011;26355;45.528;9.234;2022-12-18T04:54:04;56.10;;;27.58;;
40669;SDS011;26355;45.528;9.234;2022-12-18T04:56:30;53.83;;;27.60;;
40669;SDS011;26355;45.528;9.234;2022-12-18T04:58:57;57.45;;;28.00;;
40669;SDS011;26355;45.528;9.234;2022-12-18T05:01:22;53.65;;;26.42;;
40669;SDS011;26355;45.528;9.234;2022-12-18T05:03:48;55.95;;;26.80;;
40669;SDS011;26355;45.528;9.234;2022-12-18T05:06:15;51.60;;;25.33;;
40669;SDS011;26355;45.528;9.234;2022-12-18T05:08:41;53.97;;;25.58;;
40669;SDS011;26355;45.528;9.234;2022-12-18T05:11:26;53.17;;;26.40;;
40669;SDS011;26355;45.528;9.234;2022-12-18T05:13:51;52.33;;;26.30;;
40669;SDS011;26355;45.528;9.234;2022-12-18T05:16:17;54.17;;;26.10;;
40669;SDS011;26355;45.528;9.234;2022-12-18T05:18:43;57.50;;;26.55;;
40669;SDS011;26355;45.528;9.234;2022-12-18T05:21:09;49.92;;;26.25;;
40669;SDS011;26355;45.528;9.234;2022-12-18T05:23:35;54.47;;;27.17;;
40669;SDS011;26355;45.528;9.234;2022-12-18T05:26:01;51.78;;;27.77;;
40669;SDS011;26355;45.528;9.234;2022-12-18T05:28:29;50.10;;;25.98;;
40669;SDS011;26355;45.528;9.234;2022-12-18T05:33:28;49.00;;;23.98;;
40669;SDS011;26355;45.528;9.234;2022-12-18T05:35:58;50.45;;;24.52;;
40669;SDS011;26355;45.528;9.234;2022-12-18T05:38:26;52.85;;;26.17;;
40669;SDS011;26355;45.528;9.234;2022-12-18T05:40:53;56.08;;;27.15;;
40669;SDS011;26355;45.528;9.234;2022-12-18T05:43:20;51.77;;;26.03;;
40669;SDS011;26355;45.528;9.234;2022-12-18T05:45:47;54.92;;;29.02;;
40669;SDS011;26355;45.528;9.234;2022-12-18T05:48:13;54.85;;;28.55;;
40669;SDS011;26355;45.528;9.234;2022-12-18T05:50:40;59.50;;;28.38;;
40669;SDS011;26355;45.528;9.234;2022-12-18T05:53:07;60.10;;;28.77;;
40669;SDS011;26355;45.528;9.234;2022-12-18T05:55:34;58.83;;;28.88;;
40669;SDS011;26355;45.528;9.234;2022-12-18T05:58:02;61.03;;;30.25;;
40669;SDS011;26355;45.528;9.234;2022-12-18T06:00:28;61.30;;;28.88;;
40669;SDS011;26355;45.528;9.234;2022-12-18T06:02:55;60.43;;;28.20;;
40669;SDS011;26355;45.528;9.234;2022-12-18T06:05:21;66.28;;;29.73;;
40669;SDS011;26355;45.528;9.234;2022-12-18T06:07:47;61.22;;;30.48;;
40669;SDS011;26355;45.528;9.234;2022-12-18T06:10:12;61.95;;;27.95;;
40669;SDS011;26355;45.528;9.234;2022-12-18T06:12:38;56.78;;;27.80;;
40669;SDS011;26355;45.528;9.234;2022-12-18T06:15:04;59.67;;;26.80;;
40669;SDS011;26355;45.528;9.234;2022-12-18T06:17:31;59.15;;;27.77;;
40669;SDS011;26355;45.528;9.234;2022-12-18T06:19:57;59.07;;;27.97;;
40669;SDS011;26355;45.528;9.234;2022-12-18T06:22:23;57.72;;;26.95;;
40669;SDS011;26355;45.528;9.234;2022-12-18T06:24:50;51.10;;;26.55;;
40669;SDS011;26355;45.528;9.234;2022-12-18T06:27:16;45.92;;;25.33;;
40669;SDS011;26355;45.528;9.234;2022-12-18T06:29:41;52.20;;;26.75;;
40669;SDS011;26355;45.528;9.234;2022-12-18T06:32:07;52.17;;;26.10;;
40669;SDS011;26355;45.528;9.234;2022-12-18T06:34:33;48.40;;;25.73;;
40669;SDS011;26355;45.528;9.234;2022-12-18T06:36:59;51.05;;;26.70;;
40669;SDS011;26355;45.528;9.234;2022-12-18T06:39:28;47.08;;;25.05;;
40669;SDS011;26355;45.528;9.234;2022-12-18T06:41:54;50.45;;;26.00;;
40669;SDS011;26355;45.528;9.234;2022-12-18T06:44:20;49.10;;;25.25;;
40669;SDS011;26355;45.528;9.234;2022-12-18T06:46:45;50.05;;;24.95;;
40669;SDS011;26355;45.528;9.234;2022-12-18T06:49:11;52.15;;;25.30;;
40669;SDS011;26355;45.528;9.234;2022-12-18T06:51:37;52.33;;;25.88;;
40669;SDS011;26355;45.528;9.234;2022-12-18T06:54:03;48.40;;;25.88;;
40669;SDS011;26355;45.528;9.234;2022-12-18T06:56:29;48.30;;;24.92;;
40669;SDS011;26355;45.528;9.234;2022-12-18T06:58:55;47.78;;;24.60;;
40669;SDS011;26355;45.528;9.234;2022-12-18T07:01:21;50.10;;;25.88;;
40669;SDS011;26355;45.528;9.234;2022-12-18T07:03:47;45.67;;;24.08;;
40669;SDS011;26355;45.528;9.234;2022-12-18T07:06:19;49.85;;;25.25;;
40669;SDS011;26355;45.528;9.234;2022-12-18T07:08:46;45.35;;;23.67;;
40669;SDS011;26355;45.528;9.234;2022-12-18T07:11:12;46.23;;;23.90;;
40669;SDS011;26355;45.528;9.234;2022-12-18T07:13:38;46.70;;;23.90;;
40669;SDS011;26355;45.528;9.234;2022-12-18T07:16:05;49.40;;;24.90;;
40669;SDS011;26355;45.528;9.234;2022-12-18T07:18:41;48.58;;;24.67;;
40669;SDS011;26355;45.528;9.234;2022-12-18T07:21:08;48.67;;;25.95;;
40669;SDS011;26355;45.528;9.234;2022-12-18T07:23:36;48.42;;;24.35;;
40669;SDS011;26355;45.528;9.234;2022-12-18T07:26:06;48.45;;;25.65;;
40669;SDS011;26355;45.528;9.234;2022-12-18T07:28:36;48.00;;;25.10;;
40669;SDS011;26355;45.528;9.234;2022-12-18T07:31:03;43.90;;;22.95;;
40669;SDS011;26355;45.528;9.234;2022-12-18T07:33:31;48.50;;;25.67;;
40669;SDS011;26355;45.528;9.234;2022-12-18T07:35:58;48.88;;;23.83;;
40669;SDS011;26355;45.528;9.234;2022-12-18T07:38:25;47.08;;;24.20;;
40669;SDS011;26355;45.528;9.234;2022-12-18T07:40:50;41.78;;;22.10;;
40669;SDS011;26355;45.528;9.234;2022-12-18T07:43:16;45.63;;;22.63;;
40669;SDS011;26355;45.528;9.234;2022-12-18T07:45:42;43.25;;;23.35;;
40669;SDS011;26355;45.528;9.234;2022-12-18T07:48:08;40.97;;;22.00;;
40669;SDS011;26355;45.528;9.234;2022-12-18T07:50:34;40.28;;;21.02;;
40669;SDS011;26355;45.528;9.234;2022-12-18T07:53:00;43.40;;;22.23;;
40669;SDS011;26355;45.528;9.234;2022-12-18T07:55:29;40.42;;;21.95;;
40669;SDS011;26355;45.528;9.234;2022-12-18T07:57:55;41.20;;;22.63;;
40669;SDS011;26355;45.528;9.234;2022-12-18T08:00:21;47.83;;;23.98;;
40669;SDS011;26355;45.528;9.234;2022-12-18T08:02:47;42.72;;;21.98;;
40669;SDS011;26355;45.528;9.234;2022-12-18T08:05:13;41.35;;;22.83;;
40669;SDS011;26355;45.528;9.234;2022-12-18T08:07:39;43.55;;;23.92;;
40669;SDS011;26355;45.528;9.234;2022-12-18T08:10:05;43.80;;;24.65;;
40669;SDS011;26355;45.528;9.234;2022-12-18T08:12:32;48.60;;;24.35;;
40669;SDS011;26355;45.528;9.234;2022-12-18T08:14:57;51.72;;;25.17;;
40669;SDS011;26355;45.528;9.234;2022-12-18T08:17:23;57.15;;;27.60;;
40669;SDS011;26355;45.528;9.234;2022-12-18T08:19:49;55.85;;;29.73;;
40669;SDS011;26355;45.528;9.234;2022-12-18T08:22:15;57.75;;;29.30;;
40669;SDS011;26355;45.528;9.234;2022-12-18T08:24:40;56.53;;;29.65;;
40669;SDS011;26355;45.528;9.234;2022-12-18T08:27:06;56.08;;;29.02;;
40669;SDS011;26355;45.528;9.234;2022-12-18T08:29:32;53.53;;;28.92;;
40669;SDS011;26355;45.528;9.234;2022-12-18T08:31:58;55.03;;;27.83;;
40669;SDS011;26355;45.528;9.234;2022-12-18T08:34:24;53.10;;;27.77;;
40669;SDS011;26355;45.528;9.234;2022-12-18T08:36:50;49.17;;;25.52;;
40669;SDS011;26355;45.528;9.234;2022-12-18T08:39:16;47.88;;;25.92;;
40669;SDS011;26355;45.528;9.234;2022-12-18T08:41:41;45.03;;;25.38;;
40669;SDS011;26355;45.528;9.234;2022-12-18T08:44:07;45.63;;;24.08;;
40669;SDS011;26355;45.528;9.234;2022-12-18T08:46:51;44.75;;;23.88;;
40669;SDS011;26355;45.528;9.234;2022-12-18T08:49:17;41.05;;;22.45;;
40669;SDS011;26355;45.528;9.234;2022-12-18T08:51:43;40.80;;;22.90;;
40669;SDS011;26355;45.528;9.234;2022-12-18T08:54:10;44.15;;;24.27;;
40669;SDS011;26355;45.528;9.234;2022-12-18T08:56:37;46.00;;;23.83;;
40669;SDS011;26355;45.528;9.234;2022-12-18T08:59:03;47.63;;;24.52;;
40669;SDS011;26355;45.528;9.234;2022-12-18T09:01:29;45.55;;;24.77;;
40669;SDS011;26355;45.528;9.234;2022-12-18T09:03:55;47.45;;;25.92;;
40669;SDS011;26355;45.528;9.234;2022-12-18T09:06:21;43.85;;;22.58;;
40669;SDS011;26355;45.528;9.234;2022-12-18T09:08:48;43.30;;;23.42;;
40669;SDS011;26355;45.528;9.234;2022-12-18T09:11:24;41.85;;;23.58;;
40669;SDS011;26355;45.528;9.234;2022-12-18T09:13:51;43.13;;;22.35;;
40669;SDS011;26355;45.528;9.234;2022-12-18T09:16:19;40.85;;;22.42;;
40669;SDS011;26355;45.528;9.234;2022-12-18T09:18:45;43.38;;;22.98;;
40669;SDS011;26355;45.528;9.234;2022-12-18T09:21:12;43.45;;;23.00;;
40669;SDS011;26355;45.528;9.234;2022-12-18T09:23:43;46.05;;;23.83;;
40669;SDS011;26355;45.528;9.234;2022-12-18T09:26:09;44.80;;;25.85;;
40669;SDS011;26355;45.528;9.234;2022-12-18T09:28:36;47.88;;;25.67;;
40669;SDS011;26355;45.528;9.234;2022-12-18T09:31:07;43.78;;;23.88;;
40669;SDS011;26355;45.528;9.234;2022-12-18T09:33:36;47.95;;;26.77;;
40669;SDS011;26355;45.528;9.234;2022-12-18T09:36:03;43.42;;;23.13;;
40669;SDS011;26355;45.528;9.234;2022-12-18T09:38:30;45.25;;;24.73;;
40669;SDS011;26355;45.528;9.234;2022-12-18T09:40:57;43.60;;;24.92;;
40669;SDS011;26355;45.528;9.234;2022-12-18T09:43:46;42.50;;;24.55;;
40669;SDS011;26355;45.528;9.234;2022-12-18T09:46:17;42.13;;;22.85;;
40669;SDS011;26355;45.528;9.234;2022-12-18T09:48:52;41.75;;;23.70;;
40669;SDS011;26355;45.528;9.234;2022-12-18T09:52:05;41.03;;;22.42;;
40669;SDS011;26355;45.528;9.234;2022-12-18T09:54:21;38.38;;;22.02;;
40669;SDS011;26355;45.528;9.234;2022-12-18T09:56:51;41.28;;;23.30;;
40669;SDS011;26355;45.528;9.234;2022-12-18T09:59:34;39.47;;;22.48;;
40669;SDS011;26355;45.528;9.234;2022-12-18T10:04:41;38.90;;;22.27;;
40669;SDS011;26355;45.528;9.234;2022-12-18T10:07:10;38.28;;;21.92;;
40669;SDS011;26355;45.528;9.234;2022-12-18T10:10:01;39.03;;;21.35;;
40669;SDS011;26355;45.528;9.234;2022-12-18T10:15:58;37.75;;;20.80;;
40669;SDS011;26355;45.528;9.234;2022-12-18T10:21:32;35.58;;;19.27;;
40669;SDS011;26355;45.528;9.234;2022-12-18T10:24:26;35.30;;;20.05;;
40669;SDS011;26355;45.528;9.234;2022-12-18T10:26:55;34.75;;;19.40;;
40669;SDS011;26355;45.528;9.234;2022-12-18T10:29:34;34.38;;;19.63;;
40669;SDS011;26355;45.528;9.234;2022-12-18T10:32:00;38.42;;;20.25;;
40669;SDS011;26355;45.528;9.234;2022-12-18T10:34:26;36.28;;;21.35;;
40669;SDS011;26355;45.528;9.234;2022-12-18T10:36:51;41.00;;;22.90;;
40669;SDS011;26355;45.528;9.234;2022-12-18T10:39:19;38.67;;;21.50;;
40669;SDS011;26355;45.528;9.234;2022-12-18T10:44:12;36.50;;;21.10;;
40669;SDS011;26355;45.528;9.234;2022-12-18T10:46:53;34.70;;;20.73;;
40669;SDS011;26355;45.528;9.234;2022-12-18T10:49:28;37.30;;;21.85;;
40669;SDS011;26355;45.528;9.234;2022-12-18T10:54:49;41.03;;;23.67;;
40669;SDS011;26355;45.528;9.234;2022-12-18T10:59:58;46.72;;;26.17;;
40669;SDS011;26355;45.528;9.234;2022-12-18T11:02:36;47.15;;;25.92;;
40669;SDS011;26355;45.528;9.234;2022-12-18T11:05:04;44.83;;;25.13;;
40669;SDS011;26355;45.528;9.234;2022-12-18T11:07:52;43.92;;;23.75;;
40669;SDS011;26355;45.528;9.234;2022-12-18T11:10:22;45.17;;;25.55;;
40669;SDS011;26355;45.528;9.234;2022-12-18T11:12:53;49.35;;;27.25;;
40669;SDS011;26355;45.528;9.234;2022-12-18T11:15:20;54.55;;;28.77;;
40669;SDS011;26355;45.528;9.234;2022-12-18T11:17:51;49.50;;;26.65;;
40669;SDS011;26355;45.528;9.234;2022-12-18T11:20:27;48.13;;;28.05;;
40669;SDS011;26355;45.528;9.234;2022-12-18T11:23:00;47.92;;;28.30;;
40669;SDS011;26355;45.528;9.234;2022-12-18T11:25:28;48.45;;;28.23;;
40669;SDS011;26355;45.528;9.234;2022-12-18T11:28:05;49.28;;;29.00;;
40669;SDS011;26355;45.528;9.234;2022-12-18T11:30:54;53.40;;;29.15;;
40669;SDS011;26355;45.528;9.234;2022-12-18T11:33:57;47.50;;;28.48;;
40669;SDS011;26355;45.528;9.234;2022-12-18T11:36:50;44.58;;;24.75;;
40669;SDS011;26355;45.528;9.234;2022-12-18T11:39:18;43.75;;;25.08;;
40669;SDS011;26355;45.528;9.234;2022-12-18T11:41:56;43.08;;;24.40;;
40669;SDS011;26355;45.528;9.234;2022-12-18T11:50:18;44.25;;;24.73;;
40669;SDS011;26355;45.528;9.234;2022-12-18T11:52:48;44.03;;;25.58;;
40669;SDS011;26355;45.528;9.234;2022-12-18T11:55:15;40.70;;;22.95;;
40669;SDS011;26355;45.528;9.234;2022-12-18T12:00:24;45.35;;;24.52;;
40669;SDS011;26355;45.528;9.234;2022-12-18T12:03:05;38.80;;;23.65;;
40669;SDS011;26355;45.528;9.234;2022-12-18T12:05:44;35.70;;;22.73;;
40669;SDS011;26355;45.528;9.234;2022-12-18T12:17:36;39.28;;;22.52;;
40669;SDS011;26355;45.528;9.234;2022-12-18T12:20:27;41.40;;;24.00;;
40669;SDS011;26355;45.528;9.234;2022-12-18T12:23:09;39.08;;;23.17;;
40669;SDS011;26355;45.528;9.234;2022-12-18T12:25:46;38.20;;;22.75;;
40669;SDS011;26355;45.528;9.234;2022-12-18T12:30:53;38.13;;;23.30;;
40669;SDS011;26355;45.528;9.234;2022-12-18T12:39:01;35.97;;;22.98;;
40669;SDS011;26355;45.528;9.234;2022-12-18T12:41:33;38.10;;;23.23;;
40669;SDS011;26355;45.528;9.234;2022-12-18T12:44:23;35.38;;;22.33;;
40669;SDS011;26355;45.528;9.234;2022-12-18T12:47:37;34.78;;;21.42;;
40669;SDS011;26355;45.528;9.234;2022-12-18T12:50:11;35.17;;;20.63;;
40669;SDS011;26355;45.528;9.234;2022-12-18T12:52:45;33.80;;;21.02;;
40669;SDS011;26355;45.528;9.234;2022-12-18T12:55:19;34.42;;;19.88;;
40669;SDS011;26355;45.528;9.234;2022-12-18T13:00:46;34.10;;;21.38;;
40669;SDS011;26355;45.528;9.234;2022-12-18T13:06:00;34.90;;;21.20;;
40669;SDS011;26355;45.528;9.234;2022-12-18T13:08:51;33.20;;;20.52;;
40669;SDS011;26355;45.528;9.234;2022-12-18T13:11:35;33.25;;;20.70;;
40669;SDS011;26355;45.528;9.234;2022-12-18T13:14:29;36.90;;;21.73;;
40669;SDS011;26355;45.528;9.234;2022-12-18T13:19:49;37.60;;;22.80;;
40669;SDS011;26355;45.528;9.234;2022-12-18T13:22:37;41.45;;;25.27;;
40669;SDS011;26355;45.528;9.234;2022-12-18T13:25:28;40.08;;;26.08;;
40669;SDS011;26355;45.528;9.234;2022-12-18T13:38:21;42.70;;;26.08;;
40669;SDS011;26355;45.528;9.234;2022-12-18T13:40:59;40.45;;;25.55;;
40669;SDS011;26355;45.528;9.234;2022-12-18T13:43:51;42.30;;;25.60;;
40669;SDS011;26355;45.528;9.234;2022-12-18T13:46:24;42.95;;;25.98;;
40669;SDS011;26355;45.528;9.234;2022-12-18T13:51:41;44.40;;;28.52;;
40669;SDS011;26355;45.528;9.234;2022-12-18T13:57:01;49.85;;;28.27;;
40669;SDS011;26355;45.528;9.234;2022-12-18T13:59:35;46.78;;;29.00;;
40669;SDS011;26355;45.528;9.234;2022-12-18T14:02:11;46.65;;;28.75;;
40669;SDS011;26355;45.528;9.234;2022-12-18T14:04:45;45.00;;;28.98;;
40669;SDS011;26355;45.528;9.234;2022-12-18T14:07:15;46.45;;;29.02;;
40669;SDS011;26355;45.528;9.234;2022-12-18T14:09:44;46.72;;;28.50;;
40669;SDS011;26355;45.528;9.234;2022-12-18T14:12:24;47.25;;;27.92;;
40669;SDS011;26355;45.528;9.234;2022-12-18T14:15:22;47.25;;;27.48;;
40669;SDS011;26355;45.528;9.234;2022-12-18T14:20:49;46.10;;;28.30;;
40669;SDS011;26355;45.528;9.234;2022-12-18T14:25:59;45.08;;;28.83;;
40669;SDS011;26355;45.528;9.234;2022-12-18T14:28:44;45.92;;;28.20;;
40669;SDS011;26355;45.528;9.234;2022-12-18T14:31:17;44.92;;;28.05;;
40669;SDS011;26355;45.528;9.234;2022-12-18T14:33:47;39.92;;;25.42;;
40669;SDS011;26355;45.528;9.234;2022-12-18T14:36:17;43.53;;;26.35;;
40669;SDS011;26355;45.528;9.234;2022-12-18T14:38:55;42.22;;;26.50;;
40669;SDS011;26355;45.528;9.234;2022-12-18T14:41:22;41.83;;;26.52;;
40669;SDS011;26355;45.528;9.234;2022-12-18T14:43:49;42.67;;;27.30;;
40669;SDS011;26355;45.528;9.234;2022-12-18T14:46:35;39.60;;;26.55;;
40669;SDS011;26355;45.528;9.234;2022-12-18T14:49:24;42.30;;;24.92;;
40669;SDS011;26355;45.528;9.234;2022-12-18T14:51:58;38.75;;;24.15;;
40669;SDS011;26355;45.528;9.234;2022-12-18T14:54:25;40.15;;;24.15;;
40669;SDS011;26355;45.528;9.234;2022-12-18T14:56:59;40.58;;;24.55;;
40669;SDS011;26355;45.528;9.234;2022-12-18T14:59:44;40.47;;;24.80;;
40669;SDS011;26355;45.528;9.234;2022-12-18T15:02:21;38.50;;;24.45;;
40669;SDS011;26355;45.528;9.234;2022-12-18T15:04:59;37.38;;;24.35;;
40669;SDS011;26355;45.528;9.234;2022-12-18T15:07:26;38.15;;;23.75;;
40669;SDS011;26355;45.528;9.234;2022-12-18T15:10:18;38.47;;;24.75;;
40669;SDS011;26355;45.528;9.234;2022-12-18T15:12:47;40.30;;;23.58;;
40669;SDS011;26355;45.528;9.234;2022-12-18T15:23:16;37.00;;;21.73;;
40669;SDS011;26355;45.528;9.234;2022-12-18T15:25:46;38.22;;;24.88;;
40669;SDS011;26355;45.528;9.234;2022-12-18T15:28:15;38.67;;;23.48;;
40669;SDS011;26355;45.528;9.234;2022-12-18T15:31:05;37.53;;;23.60;;
40669;SDS011;26355;45.528;9.234;2022-12-18T15:36:18;38.25;;;24.42;;
40669;SDS011;26355;45.528;9.234;2022-12-18T15:38:50;36.85;;;23.73;;
40669;SDS011;26355;45.528;9.234;2022-12-18T15:41:21;38.53;;;24.92;;
40669;SDS011;26355;45.528;9.234;2022-12-18T15:43:53;40.78;;;25.45;;
40669;SDS011;26355;45.528;9.234;2022-12-18T15:46:20;39.28;;;25.80;;
40669;SDS011;26355;45.528;9.234;2022-12-18T15:48:48;38.90;;;24.85;;
40669;SDS011;26355;45.528;9.234;2022-12-18T15:51:23;42.40;;;26.52;;
40669;SDS011;26355;45.528;9.234;2022-12-18T15:53:54;41.70;;;26.65;;
40669;SDS011;26355;45.528;9.234;2022-12-18T15:56:21;41.25;;;26.27;;
40669;SDS011;26355;45.528;9.234;2022-12-18T15:59:14;36.92;;;24.40;;
40669;SDS011;26355;45.528;9.234;2022-12-18T16:01:43;41.53;;;25.85;;
40669;SDS011;26355;45.528;9.234;2022-12-18T16:04:12;39.47;;;26.10;;
40669;SDS011;26355;45.528;9.234;2022-12-18T16:06:39;41.47;;;25.70;;
40669;SDS011;26355;45.528;9.234;2022-12-18T16:09:05;41.08;;;26.00;;
40669;SDS011;26355;45.528;9.234;2022-12-18T16:11:32;41.97;;;26.25;;
40669;SDS011;26355;45.528;9.234;2022-12-18T16:16:54;42.92;;;26.98;;
40669;SDS011;26355;45.528;9.234;2022-12-18T16:19:22;41.72;;;26.42;;
40669;SDS011;26355;45.528;9.234;2022-12-18T16:21:49;43.08;;;27.17;;
40669;SDS011;26355;45.528;9.234;2022-12-18T16:24:17;42.22;;;27.60;;
40669;SDS011;26355;45.528;9.234;2022-12-18T16:26:44;47.20;;;29.38;;
40669;SDS011;26355;45.528;9.234;2022-12-18T16:29:10;53.42;;;32.83;;
40669;SDS011;26355;45.528;9.234;2022-12-18T16:31:36;47.38;;;30.08;;
40669;SDS011;26355;45.528;9.234;2022-12-18T16:37:05;40.00;;;25.83;;
40669;SDS011;26355;45.528;9.234;2022-12-18T16:39:33;44.42;;;27.88;;